KCHA/CHA METAR and TAF weather

Enter ICAO airport designator
Station Type Date Time Source
KCHA METAR 2021/03/09 08:53 UTC NOAA

KCHA 090853Z 00000KT 10SM CLR 03/M01 A3046 RMK AO2 SLP314 T00331011 58004 $


Station Type Date Time Source
KCHA Decoded METAR 2021/03/09 08:53 UTC NOAA

LOVELL FIELD, TN, United States (KCHA) 35-02N 085-12W 210M
Mar 09, 2021 - 03:53 AM EST / 2021.03.09 0853 UTC
Wind: Calm:0
Visibility: 10 mile(s):0
Sky conditions: clear
Temperature: 37.9 F (3.3 C)
Dew Point: 30.0 F (-1.1 C)
Relative Humidity: 72%
Pressure (altimeter): 30.46 in. Hg (1031 hPa)
Pressure tendency: 0.01 inches (0.4 hPa) lower than three hours ago
ob: KCHA 090853Z 00000KT 10SM CLR 03/M01 A3046 RMK AO2 SLP314 T00331011 58004
cycle: 9

Station Type Date Time Source
KCHA TAF 2021/03/09 06:30 UTC NOAA

TAF KCHA 090528Z 0906/1006 VRB02KT P6SM FEW250
FM091700 19006KT P6SM SCT250
FM100100 VRB02KT P6SM SCT200

Example: see airport list